sensor_id;sensor_type;location;lat;lon;timestamp;temperature;humidity
24374;DHT22;12498;50.880;12.096;2023-11-21T00:02:05;8.60;99.90
24374;DHT22;12498;50.880;12.096;2023-11-21T00:04:30;8.70;99.90
24374;DHT22;12498;50.880;12.096;2023-11-21T00:06:56;8.70;99.90
24374;DHT22;12498;50.880;12.096;2023-11-21T00:09:21;8.70;99.90
24374;DHT22;12498;50.880;12.096;2023-11-21T00:11:47;8.70;99.90
24374;DHT22;12498;50.880;12.096;2023-11-21T00:14:12;8.50;99.90
24374;DHT22;12498;50.880;12.096;2023-11-21T00:16:40;8.70;99.90
24374;DHT22;12498;50.880;12.096;2023-11-21T00:19:05;8.50;99.90
24374;DHT22;12498;50.880;12.096;2023-11-21T00:21:31;8.60;99.90
24374;DHT22;12498;50.880;12.096;2023-11-21T00:23:56;8.70;99.90
24374;DHT22;12498;50.880;12.096;2023-11-21T00:26:22;8.70;99.90
24374;DHT22;12498;50.880;12.096;2023-11-21T00:28:47;8.70;99.90
24374;DHT22;12498;50.880;12.096;2023-11-21T00:31:13;8.70;99.90
24374;DHT22;12498;50.880;12.096;2023-11-21T00:33:39;8.60;99.90
24374;DHT22;12498;50.880;12.096;2023-11-21T00:36:04;8.60;99.90
24374;DHT22;12498;50.880;12.096;2023-11-21T00:38:31;8.60;99.90
24374;DHT22;12498;50.880;12.096;2023-11-21T00:40:57;8.80;99.90
24374;DHT22;12498;50.880;12.096;2023-11-21T00:43:22;8.70;99.90
24374;DHT22;12498;50.880;12.096;2023-11-21T00:45:48;8.60;99.90
24374;DHT22;12498;50.880;12.096;2023-11-21T00:48:14;8.70;99.90
24374;DHT22;12498;50.880;12.096;2023-11-21T00:50:40;8.80;99.90
24374;DHT22;12498;50.880;12.096;2023-11-21T00:53:05;8.70;99.90
24374;DHT22;12498;50.880;12.096;2023-11-21T00:55:32;8.60;99.90
24374;DHT22;12498;50.880;12.096;2023-11-21T00:57:58;8.80;99.90
24374;DHT22;12498;50.880;12.096;2023-11-21T01:00:25;8.70;99.90
24374;DHT22;12498;50.880;12.096;2023-11-21T01:02:50;8.70;99.90
24374;DHT22;12498;50.880;12.096;2023-11-21T01:05:16;8.70;99.90
24374;DHT22;12498;50.880;12.096;2023-11-21T01:07:41;8.60;99.90
24374;DHT22;12498;50.880;12.096;2023-11-21T01:10:07;9.20;99.90
24374;DHT22;12498;50.880;12.096;2023-11-21T01:12:36;8.60;99.90
24374;DHT22;12498;50.880;12.096;2023-11-21T01:15:03;8.70;99.90
24374;DHT22;12498;50.880;12.096;2023-11-21T01:17:29;8.50;99.90
24374;DHT22;12498;50.880;12.096;2023-11-21T01:19:54;8.60;99.90
24374;DHT22;12498;50.880;12.096;2023-11-21T01:22:21;8.70;99.90
24374;DHT22;12498;50.880;12.096;2023-11-21T01:24:54;8.60;99.90
24374;DHT22;12498;50.880;12.096;2023-11-21T01:27:20;8.50;99.90
24374;DHT22;12498;50.880;12.096;2023-11-21T01:29:45;8.50;99.90
24374;DHT22;12498;50.880;12.096;2023-11-21T01:32:11;8.60;99.90
24374;DHT22;12498;50.880;12.096;2023-11-21T01:34:37;8.60;99.90
24374;DHT22;12498;50.880;12.096;2023-11-21T01:37:02;8.50;99.90
24374;DHT22;12498;50.880;12.096;2023-11-21T01:39:31;8.60;99.90
24374;DHT22;12498;50.880;12.096;2023-11-21T01:41:57;8.60;99.90
24374;DHT22;12498;50.880;12.096;2023-11-21T01:44:24;8.70;99.90
24374;DHT22;12498;50.880;12.096;2023-11-21T01:46:50;8.80;99.90
24374;DHT22;12498;50.880;12.096;2023-11-21T01:49:16;8.80;99.90
24374;DHT22;12498;50.880;12.096;2023-11-21T01:51:43;8.70;99.90
24374;DHT22;12498;50.880;12.096;2023-11-21T01:54:09;8.80;99.90
24374;DHT22;12498;50.880;12.096;2023-11-21T01:56:37;8.70;99.90
24374;DHT22;12498;50.880;12.096;2023-11-21T01:59:02;8.80;99.90
24374;DHT22;12498;50.880;12.096;2023-11-21T02:01:28;8.80;99.90
24374;DHT22;12498;50.880;12.096;2023-11-21T02:03:53;8.70;99.90
24374;DHT22;12498;50.880;12.096;2023-11-21T02:06:19;8.70;99.90
24374;DHT22;12498;50.880;12.096;2023-11-21T02:08:45;8.80;99.90
24374;DHT22;12498;50.880;12.096;2023-11-21T02:11:10;8.80;99.90
24374;DHT22;12498;50.880;12.096;2023-11-21T02:13:38;8.70;99.90
24374;DHT22;12498;50.880;12.096;2023-11-21T02:16:04;9.30;99.90
24374;DHT22;12498;50.880;12.096;2023-11-21T02:18:30;8.80;99.90
24374;DHT22;12498;50.880;12.096;2023-11-21T02:20:56;8.60;99.90
24374;DHT22;12498;50.880;12.096;2023-11-21T02:23:21;8.70;99.90
24374;DHT22;12498;50.880;12.096;2023-11-21T02:25:48;8.60;99.90
24374;DHT22;12498;50.880;12.096;2023-11-21T02:28:14;8.60;99.90
24374;DHT22;12498;50.880;12.096;2023-11-21T02:30:41;8.70;99.90
24374;DHT22;12498;50.880;12.096;2023-11-21T02:33:07;8.60;99.90
24374;DHT22;12498;50.880;12.096;2023-11-21T02:35:33;8.60;99.90
24374;DHT22;12498;50.880;12.096;2023-11-21T02:37:58;8.60;99.90
24374;DHT22;12498;50.880;12.096;2023-11-21T02:40:24;8.70;99.90
24374;DHT22;12498;50.880;12.096;2023-11-21T02:42:52;8.60;99.90
24374;DHT22;12498;50.880;12.096;2023-11-21T02:45:19;8.70;99.90
24374;DHT22;12498;50.880;12.096;2023-11-21T02:47:46;8.80;99.90
24374;DHT22;12498;50.880;12.096;2023-11-21T02:50:11;8.70;99.90
24374;DHT22;12498;50.880;12.096;2023-11-21T02:52:37;8.50;99.90
24374;DHT22;12498;50.880;12.096;2023-11-21T02:55:03;8.70;99.90
24374;DHT22;12498;50.880;12.096;2023-11-21T02:57:28;8.60;99.90
24374;DHT22;12498;50.880;12.096;2023-11-21T02:59:54;8.70;99.90
24374;DHT22;12498;50.880;12.096;2023-11-21T03:02:20;8.70;99.90
24374;DHT22;12498;50.880;12.096;2023-11-21T03:04:45;8.70;99.90
24374;DHT22;12498;50.880;12.096;2023-11-21T03:07:11;8.60;99.90
24374;DHT22;12498;50.880;12.096;2023-11-21T03:09:36;8.60;99.90
24374;DHT22;12498;50.880;12.096;2023-11-21T03:12:02;8.60;99.90
24374;DHT22;12498;50.880;12.096;2023-11-21T03:14:27;8.50;99.90
24374;DHT22;12498;50.880;12.096;2023-11-21T03:16:53;8.50;99.90
24374;DHT22;12498;50.880;12.096;2023-11-21T03:19:18;8.40;99.90
24374;DHT22;12498;50.880;12.096;2023-11-21T03:21:44;8.50;99.90
24374;DHT22;12498;50.880;12.096;2023-11-21T03:24:09;8.50;99.90
24374;DHT22;12498;50.880;12.096;2023-11-21T03:26:35;8.50;99.90
24374;DHT22;12498;50.880;12.096;2023-11-21T03:29:00;8.40;99.90
24374;DHT22;12498;50.880;12.096;2023-11-21T03:31:26;8.50;99.90
24374;DHT22;12498;50.880;12.096;2023-11-21T03:33:52;8.50;99.90
24374;DHT22;12498;50.880;12.096;2023-11-21T03:36:19;8.50;99.90
24374;DHT22;12498;50.880;12.096;2023-11-21T03:38:44;8.70;99.90
24374;DHT22;12498;50.880;12.096;2023-11-21T03:41:10;8.60;99.90
24374;DHT22;12498;50.880;12.096;2023-11-21T03:43:36;8.60;99.90
24374;DHT22;12498;50.880;12.096;2023-11-21T03:46:01;8.50;99.90
24374;DHT22;12498;50.880;12.096;2023-11-21T03:48:27;9.20;99.90
24374;DHT22;12498;50.880;12.096;2023-11-21T03:50:53;8.60;99.90
24374;DHT22;12498;50.880;12.096;2023-11-21T03:53:18;8.50;99.90
24374;DHT22;12498;50.880;12.096;2023-11-21T03:55:44;8.50;99.90
24374;DHT22;12498;50.880;12.096;2023-11-21T03:58:09;8.60;99.90
24374;DHT22;12498;50.880;12.096;2023-11-21T04:00:35;8.70;99.90
24374;DHT22;12498;50.880;12.096;2023-11-21T04:03:00;8.40;99.90
24374;DHT22;12498;50.880;12.096;2023-11-21T04:05:26;8.60;99.90
24374;DHT22;12498;50.880;12.096;2023-11-21T04:07:51;8.50;99.90
24374;DHT22;12498;50.880;12.096;2023-11-21T04:10:17;8.80;99.90
24374;DHT22;12498;50.880;12.096;2023-11-21T04:12:43;8.50;99.90
24374;DHT22;12498;50.880;12.096;2023-11-21T04:15:09;8.50;99.90
24374;DHT22;12498;50.880;12.096;2023-11-21T04:17:35;8.40;99.90
24374;DHT22;12498;50.880;12.096;2023-11-21T04:20:02;8.30;99.90
24374;DHT22;12498;50.880;12.096;2023-11-21T04:22:28;8.30;99.90
24374;DHT22;12498;50.880;12.096;2023-11-21T04:24:54;8.50;99.90
24374;DHT22;12498;50.880;12.096;2023-11-21T04:27:21;8.40;99.90
24374;DHT22;12498;50.880;12.096;2023-11-21T04:29:46;8.30;99.90
24374;DHT22;12498;50.880;12.096;2023-11-21T04:32:12;8.40;99.90
24374;DHT22;12498;50.880;12.096;2023-11-21T04:34:38;8.40;99.90
24374;DHT22;12498;50.880;12.096;2023-11-21T04:37:03;8.40;99.90
24374;DHT22;12498;50.880;12.096;2023-11-21T04:39:31;8.30;99.90
24374;DHT22;12498;50.880;12.096;2023-11-21T04:41:57;8.40;99.90
24374;DHT22;12498;50.880;12.096;2023-11-21T04:44:22;8.50;99.90
24374;DHT22;12498;50.880;12.096;2023-11-21T04:46:48;8.50;99.90
24374;DHT22;12498;50.880;12.096;2023-11-21T04:49:14;8.50;99.90
24374;DHT22;12498;50.880;12.096;2023-11-21T04:51:39;9.10;99.90
24374;DHT22;12498;50.880;12.096;2023-11-21T04:54:05;8.50;99.90
24374;DHT22;12498;50.880;12.096;2023-11-21T04:56:31;8.50;99.90
24374;DHT22;12498;50.880;12.096;2023-11-21T04:58:56;8.50;99.90
24374;DHT22;12498;50.880;12.096;2023-11-21T05:01:22;8.50;99.90
24374;DHT22;12498;50.880;12.096;2023-11-21T05:03:48;8.40;99.90
24374;DHT22;12498;50.880;12.096;2023-11-21T05:06:14;8.40;99.90
24374;DHT22;12498;50.880;12.096;2023-11-21T05:08:39;8.40;99.90
24374;DHT22;12498;50.880;12.096;2023-11-21T05:11:05;8.30;99.90
24374;DHT22;12498;50.880;12.096;2023-11-21T05:13:35;8.20;99.90
24374;DHT22;12498;50.880;12.096;2023-11-21T05:16:05;8.10;99.90
24374;DHT22;12498;50.880;12.096;2023-11-21T05:18:31;8.10;99.90
24374;DHT22;12498;50.880;12.096;2023-11-21T05:20:57;8.10;99.90
24374;DHT22;12498;50.880;12.096;2023-11-21T05:23:23;8.00;99.90
24374;DHT22;12498;50.880;12.096;2023-11-21T05:25:48;8.10;99.90
24374;DHT22;12498;50.880;12.096;2023-11-21T05:28:14;8.10;99.90
24374;DHT22;12498;50.880;12.096;2023-11-21T05:30:39;8.00;99.90
24374;DHT22;12498;50.880;12.096;2023-11-21T05:33:05;7.70;99.90
24374;DHT22;12498;50.880;12.096;2023-11-21T05:35:31;8.40;99.90
24374;DHT22;12498;50.880;12.096;2023-11-21T05:37:56;7.60;99.90
24374;DHT22;12498;50.880;12.096;2023-11-21T05:40:21;7.60;99.90
24374;DHT22;12498;50.880;12.096;2023-11-21T05:42:47;7.60;99.90
24374;DHT22;12498;50.880;12.096;2023-11-21T05:45:13;7.30;99.90
24374;DHT22;12498;50.880;12.096;2023-11-21T05:47:48;7.40;99.90
24374;DHT22;12498;50.880;12.096;2023-11-21T05:50:14;7.30;99.90
24374;DHT22;12498;50.880;12.096;2023-11-21T05:52:41;7.30;99.90
24374;DHT22;12498;50.880;12.096;2023-11-21T05:55:07;7.90;99.90
24374;DHT22;12498;50.880;12.096;2023-11-21T05:57:35;7.30;99.90
24374;DHT22;12498;50.880;12.096;2023-11-21T06:02:37;7.40;99.90
24374;DHT22;12498;50.880;12.096;2023-11-21T06:05:02;8.00;99.90
24374;DHT22;12498;50.880;12.096;2023-11-21T06:07:29;7.50;99.90
24374;DHT22;12498;50.880;12.096;2023-11-21T06:09:57;7.40;99.90
24374;DHT22;12498;50.880;12.096;2023-11-21T06:12:22;7.30;99.90
24374;DHT22;12498;50.880;12.096;2023-11-21T06:14:48;7.30;99.90
24374;DHT22;12498;50.880;12.096;2023-11-21T06:17:13;7.10;99.90
24374;DHT22;12498;50.880;12.096;2023-11-21T06:19:39;7.40;99.90
24374;DHT22;12498;50.880;12.096;2023-11-21T06:22:05;7.20;99.90
24374;DHT22;12498;50.880;12.096;2023-11-21T06:24:31;7.20;99.90
24374;DHT22;12498;50.880;12.096;2023-11-21T06:26:57;7.20;99.90
24374;DHT22;12498;50.880;12.096;2023-11-21T06:29:22;7.10;99.90
24374;DHT22;12498;50.880;12.096;2023-11-21T06:31:48;6.90;99.90
24374;DHT22;12498;50.880;12.096;2023-11-21T06:34:13;6.80;99.90
24374;DHT22;12498;50.880;12.096;2023-11-21T06:36:39;6.90;99.90
24374;DHT22;12498;50.880;12.096;2023-11-21T06:39:04;6.90;99.90
24374;DHT22;12498;50.880;12.096;2023-11-21T06:41:33;6.80;99.90
24374;DHT22;12498;50.880;12.096;2023-11-21T06:43:59;7.00;99.90
24374;DHT22;12498;50.880;12.096;2023-11-21T06:46:24;7.00;99.90
24374;DHT22;12498;50.880;12.096;2023-11-21T06:48:50;7.00;99.90
24374;DHT22;12498;50.880;12.096;2023-11-21T06:51:15;6.60;99.90
24374;DHT22;12498;50.880;12.096;2023-11-21T06:53:41;7.20;99.90
24374;DHT22;12498;50.880;12.096;2023-11-21T06:56:18;7.60;99.90
24374;DHT22;12498;50.880;12.096;2023-11-21T06:58:47;6.90;99.90
24374;DHT22;12498;50.880;12.096;2023-11-21T07:01:13;6.80;99.90
24374;DHT22;12498;50.880;12.096;2023-11-21T07:03:39;6.80;99.90
24374;DHT22;12498;50.880;12.096;2023-11-21T07:06:04;6.70;99.90
24374;DHT22;12498;50.880;12.096;2023-11-21T07:08:30;6.90;99.90
24374;DHT22;12498;50.880;12.096;2023-11-21T07:10:55;6.90;99.90
24374;DHT22;12498;50.880;12.096;2023-11-21T07:13:21;6.90;99.90
24374;DHT22;12498;50.880;12.096;2023-11-21T07:15:47;6.90;99.90
24374;DHT22;12498;50.880;12.096;2023-11-21T07:18:13;7.20;99.90
24374;DHT22;12498;50.880;12.096;2023-11-21T07:20:38;7.10;99.90
24374;DHT22;12498;50.880;12.096;2023-11-21T07:23:04;7.20;99.90
24374;DHT22;12498;50.880;12.096;2023-11-21T07:25:31;7.20;99.90
24374;DHT22;12498;50.880;12.096;2023-11-21T07:27:57;7.10;99.90
24374;DHT22;12498;50.880;12.096;2023-11-21T07:30:22;7.20;99.90
24374;DHT22;12498;50.880;12.096;2023-11-21T07:32:48;7.20;99.90
24374;DHT22;12498;50.880;12.096;2023-11-21T07:35:13;7.30;99.90
24374;DHT22;12498;50.880;12.096;2023-11-21T07:37:39;7.60;99.90
24374;DHT22;12498;50.880;12.096;2023-11-21T07:40:05;7.20;99.90
24374;DHT22;12498;50.880;12.096;2023-11-21T07:42:31;7.40;99.90
24374;DHT22;12498;50.880;12.096;2023-11-21T07:44:56;7.30;99.90
24374;DHT22;12498;50.880;12.096;2023-11-21T07:47:22;8.10;99.90
24374;DHT22;12498;50.880;12.096;2023-11-21T07:49:47;7.50;99.90
24374;DHT22;12498;50.880;12.096;2023-11-21T07:52:13;7.40;99.90
24374;DHT22;12498;50.880;12.096;2023-11-21T07:54:40;7.40;99.90
24374;DHT22;12498;50.880;12.096;2023-11-21T07:57:05;7.40;99.90
24374;DHT22;12498;50.880;12.096;2023-11-21T07:59:31;7.30;99.90
24374;DHT22;12498;50.880;12.096;2023-11-21T08:04:22;7.40;99.90
24374;DHT22;12498;50.880;12.096;2023-11-21T08:06:48;7.40;99.90
24374;DHT22;12498;50.880;12.096;2023-11-21T08:09:14;7.30;99.90
24374;DHT22;12498;50.880;12.096;2023-11-21T08:11:40;7.40;99.90
24374;DHT22;12498;50.880;12.096;2023-11-21T08:14:06;7.30;99.90
24374;DHT22;12498;50.880;12.096;2023-11-21T08:16:31;7.50;99.90
24374;DHT22;12498;50.880;12.096;2023-11-21T08:18:57;8.20;99.90
24374;DHT22;12498;50.880;12.096;2023-11-21T08:21:23;8.60;99.90
24374;DHT22;12498;50.880;12.096;2023-11-21T08:23:50;7.50;99.90
24374;DHT22;12498;50.880;12.096;2023-11-21T08:26:19;7.90;99.90
24374;DHT22;12498;50.880;12.096;2023-11-21T08:28:45;7.70;99.90
24374;DHT22;12498;50.880;12.096;2023-11-21T08:31:10;7.60;99.90
24374;DHT22;12498;50.880;12.096;2023-11-21T08:33:36;7.40;99.90
24374;DHT22;12498;50.880;12.096;2023-11-21T08:36:06;7.60;99.90
24374;DHT22;12498;50.880;12.096;2023-11-21T08:38:31;7.60;99.90
24374;DHT22;12498;50.880;12.096;2023-11-21T08:40:57;7.70;99.90
24374;DHT22;12498;50.880;12.096;2023-11-21T08:43:23;7.70;99.90
24374;DHT22;12498;50.880;12.096;2023-11-21T08:45:49;7.70;99.90
24374;DHT22;12498;50.880;12.096;2023-11-21T08:48:15;7.80;99.90
24374;DHT22;12498;50.880;12.096;2023-11-21T08:50:41;7.90;99.90
24374;DHT22;12498;50.880;12.096;2023-11-21T08:53:06;7.90;99.90
24374;DHT22;12498;50.880;12.096;2023-11-21T08:55:31;7.80;99.90
24374;DHT22;12498;50.880;12.096;2023-11-21T08:58:02;8.00;99.90
24374;DHT22;12498;50.880;12.096;2023-11-21T09:00:30;8.00;99.90
24374;DHT22;12498;50.880;12.096;2023-11-21T09:02:56;8.10;99.90
24374;DHT22;12498;50.880;12.096;2023-11-21T09:05:22;8.20;99.90
24374;DHT22;12498;50.880;12.096;2023-11-21T09:07:47;8.70;99.90
24374;DHT22;12498;50.880;12.096;2023-11-21T09:10:14;8.20;99.90
24374;DHT22;12498;50.880;12.096;2023-11-21T09:12:40;8.10;99.90
24374;DHT22;12498;50.880;12.096;2023-11-21T09:15:05;8.70;99.90
24374;DHT22;12498;50.880;12.096;2023-11-21T09:17:32;8.30;99.90
24374;DHT22;12498;50.880;12.096;2023-11-21T09:19:57;8.70;99.90
24374;DHT22;12498;50.880;12.096;2023-11-21T09:22:23;8.00;99.90
24374;DHT22;12498;50.880;12.096;2023-11-21T09:24:50;8.00;99.90
24374;DHT22;12498;50.880;12.096;2023-11-21T09:27:16;8.00;99.90
24374;DHT22;12498;50.880;12.096;2023-11-21T09:29:42;7.90;99.90
24374;DHT22;12498;50.880;12.096;2023-11-21T09:32:08;8.00;99.90
24374;DHT22;12498;50.880;12.096;2023-11-21T09:34:37;8.10;99.90
24374;DHT22;12498;50.880;12.096;2023-11-21T09:37:04;8.00;99.90
24374;DHT22;12498;50.880;12.096;2023-11-21T09:39:31;8.20;99.90
24374;DHT22;12498;50.880;12.096;2023-11-21T09:41:57;9.00;99.90
24374;DHT22;12498;50.880;12.096;2023-11-21T09:46:56;8.10;99.90
24374;DHT22;12498;50.880;12.096;2023-11-21T09:49:27;8.10;99.90
24374;DHT22;12498;50.880;12.096;2023-11-21T09:51:57;8.20;99.90
24374;DHT22;12498;50.880;12.096;2023-11-21T09:54:23;8.30;99.90
24374;DHT22;12498;50.880;12.096;2023-11-21T09:56:50;8.30;99.90
24374;DHT22;12498;50.880;12.096;2023-11-21T09:59:15;8.90;99.90
24374;DHT22;12498;50.880;12.096;2023-11-21T10:01:41;8.20;99.90
24374;DHT22;12498;50.880;12.096;2023-11-21T10:04:10;8.70;99.90
24374;DHT22;12498;50.880;12.096;2023-11-21T10:06:39;8.80;99.90
24374;DHT22;12498;50.880;12.096;2023-11-21T10:09:08;7.40;99.90
24374;DHT22;12498;50.880;12.096;2023-11-21T10:11:40;8.00;99.90
24374;DHT22;12498;50.880;12.096;2023-11-21T10:14:07;8.20;99.90
24374;DHT22;12498;50.880;12.096;2023-11-21T10:16:35;8.20;99.90
24374;DHT22;12498;50.880;12.096;2023-11-21T10:19:02;8.20;99.90
24374;DHT22;12498;50.880;12.096;2023-11-21T10:21:29;8.10;99.90
24374;DHT22;12498;50.880;12.096;2023-11-21T10:23:55;8.20;99.90
24374;DHT22;12498;50.880;12.096;2023-11-21T10:26:21;8.10;99.90
24374;DHT22;12498;50.880;12.096;2023-11-21T10:28:58;8.40;99.90
24374;DHT22;12498;50.880;12.096;2023-11-21T10:31:27;8.30;99.90
24374;DHT22;12498;50.880;12.096;2023-11-21T10:33:52;8.30;99.90
24374;DHT22;12498;50.880;12.096;2023-11-21T10:36:28;8.50;99.90
24374;DHT22;12498;50.880;12.096;2023-11-21T10:38:54;8.30;99.90
24374;DHT22;12498;50.880;12.096;2023-11-21T10:41:20;8.30;99.90
24374;DHT22;12498;50.880;12.096;2023-11-21T10:43:45;8.20;99.90
24374;DHT22;12498;50.880;12.096;2023-11-21T10:46:11;8.50;99.90
24374;DHT22;12498;50.880;12.096;2023-11-21T10:48:37;8.00;99.90
24374;DHT22;12498;50.880;12.096;2023-11-21T10:51:06;8.10;99.90
24374;DHT22;12498;50.880;12.096;2023-11-21T10:53:32;8.20;99.90
24374;DHT22;12498;50.880;12.096;2023-11-21T10:56:02;8.00;99.90
24374;DHT22;12498;50.880;12.096;2023-11-21T10:58:30;8.10;99.90
24374;DHT22;12498;50.880;12.096;2023-11-21T11:00:57;8.00;99.90
24374;DHT22;12498;50.880;12.096;2023-11-21T11:03:23;8.10;99.90
24374;DHT22;12498;50.880;12.096;2023-11-21T11:05:49;8.60;99.90
24374;DHT22;12498;50.880;12.096;2023-11-21T11:08:20;8.00;99.90
24374;DHT22;12498;50.880;12.096;2023-11-21T11:10:51;8.00;99.90
24374;DHT22;12498;50.880;12.096;2023-11-21T11:13:17;8.10;99.90
24374;DHT22;12498;50.880;12.096;2023-11-21T11:15:44;8.10;99.90
24374;DHT22;12498;50.880;12.096;2023-11-21T11:18:12;8.90;99.90
24374;DHT22;12498;50.880;12.096;2023-11-21T11:20:39;8.80;99.90
24374;DHT22;12498;50.880;12.096;2023-11-21T11:26:07;8.20;99.90
24374;DHT22;12498;50.880;12.096;2023-11-21T11:31:14;8.20;99.90
24374;DHT22;12498;50.880;12.096;2023-11-21T11:34:06;8.10;99.90
24374;DHT22;12498;50.880;12.096;2023-11-21T11:36:37;8.30;99.90
24374;DHT22;12498;50.880;12.096;2023-11-21T11:39:26;8.20;99.90
24374;DHT22;12498;50.880;12.096;2023-11-21T11:41:50;7.90;99.90
24374;DHT22;12498;50.880;12.096;2023-11-21T11:47:00;8.00;99.90
24374;DHT22;12498;50.880;12.096;2023-11-21T11:49:28;7.90;99.90
24374;DHT22;12498;50.880;12.096;2023-11-21T11:54:38;8.10;99.90
24374;DHT22;12498;50.880;12.096;2023-11-21T11:57:04;8.00;99.90
24374;DHT22;12498;50.880;12.096;2023-11-21T11:59:30;8.60;99.90
24374;DHT22;12498;50.880;12.096;2023-11-21T12:02:16;8.00;99.90
24374;DHT22;12498;50.880;12.096;2023-11-21T12:04:41;8.00;99.90
24374;DHT22;12498;50.880;12.096;2023-11-21T12:07:07;8.10;99.90
24374;DHT22;12498;50.880;12.096;2023-11-21T12:09:32;8.20;99.90
24374;DHT22;12498;50.880;12.096;2023-11-21T12:14:24;8.10;99.90
24374;DHT22;12498;50.880;12.096;2023-11-21T12:16:49;8.00;99.90
24374;DHT22;12498;50.880;12.096;2023-11-21T12:19:16;8.00;99.90
24374;DHT22;12498;50.880;12.096;2023-11-21T12:21:42;8.00;99.90
24374;DHT22;12498;50.880;12.096;2023-11-21T12:24:09;8.10;99.90
24374;DHT22;12498;50.880;12.096;2023-11-21T12:26:35;8.00;99.90
24374;DHT22;12498;50.880;12.096;2023-11-21T12:29:01;8.50;99.90
24374;DHT22;12498;50.880;12.096;2023-11-21T12:31:29;7.90;99.90
24374;DHT22;12498;50.880;12.096;2023-11-21T12:33:55;7.90;99.90
24374;DHT22;12498;50.880;12.096;2023-11-21T12:36:21;7.90;99.90
24374;DHT22;12498;50.880;12.096;2023-11-21T12:38:47;7.90;99.90
24374;DHT22;12498;50.880;12.096;2023-11-21T12:41:12;7.90;99.90
24374;DHT22;12498;50.880;12.096;2023-11-21T12:43:38;7.60;99.90
24374;DHT22;12498;50.880;12.096;2023-11-21T12:46:05;7.50;99.90
24374;DHT22;12498;50.880;12.096;2023-11-21T12:48:31;7.60;99.90
24374;DHT22;12498;50.880;12.096;2023-11-21T12:50:57;7.30;99.90
24374;DHT22;12498;50.880;12.096;2023-11-21T12:53:25;7.50;99.90
24374;DHT22;12498;50.880;12.096;2023-11-21T12:55:51;7.30;99.90
24374;DHT22;12498;50.880;12.096;2023-11-21T12:58:17;7.30;99.90
24374;DHT22;12498;50.880;12.096;2023-11-21T13:03:12;7.30;99.90
24374;DHT22;12498;50.880;12.096;2023-11-21T13:05:41;7.50;99.90
24374;DHT22;12498;50.880;12.096;2023-11-21T13:08:16;7.40;99.90
24374;DHT22;12498;50.880;12.096;2023-11-21T13:10:45;7.80;99.90
24374;DHT22;12498;50.880;12.096;2023-11-21T13:13:12;7.40;99.90
24374;DHT22;12498;50.880;12.096;2023-11-21T13:15:52;7.10;99.90
24374;DHT22;12498;50.880;12.096;2023-11-21T13:18:19;7.20;99.90
24374;DHT22;12498;50.880;12.096;2023-11-21T13:20:47;7.20;99.90
24374;DHT22;12498;50.880;12.096;2023-11-21T13:23:13;7.00;99.90
24374;DHT22;12498;50.880;12.096;2023-11-21T13:25:39;6.90;99.90
24374;DHT22;12498;50.880;12.096;2023-11-21T13:28:06;7.20;99.90
24374;DHT22;12498;50.880;12.096;2023-11-21T13:30:32;6.90;99.90
24374;DHT22;12498;50.880;12.096;2023-11-21T13:33:01;7.50;99.90
24374;DHT22;12498;50.880;12.096;2023-11-21T13:35:27;7.50;99.90
24374;DHT22;12498;50.880;12.096;2023-11-21T13:38:12;6.80;99.90
24374;DHT22;12498;50.880;12.096;2023-11-21T13:40:39;6.90;99.90
24374;DHT22;12498;50.880;12.096;2023-11-21T13:43:17;6.90;99.90
24374;DHT22;12498;50.880;12.096;2023-11-21T13:45:47;7.40;99.90
24374;DHT22;12498;50.880;12.096;2023-11-21T13:48:13;6.70;99.90
24374;DHT22;12498;50.880;12.096;2023-11-21T13:50:47;7.40;99.90
24374;DHT22;12498;50.880;12.096;2023-11-21T13:53:24;6.80;99.90
24374;DHT22;12498;50.880;12.096;2023-11-21T13:55:50;6.10;99.90
24374;DHT22;12498;50.880;12.096;2023-11-21T13:58:16;6.80;99.90
24374;DHT22;12498;50.880;12.096;2023-11-21T14:00:48;6.70;99.90
24374;DHT22;12498;50.880;12.096;2023-11-21T14:03:22;6.70;99.90
24374;DHT22;12498;50.880;12.096;2023-11-21T14:05:48;6.60;99.90
24374;DHT22;12498;50.880;12.096;2023-11-21T14:08:19;7.20;99.90
24374;DHT22;12498;50.880;12.096;2023-11-21T14:10:49;6.60;99.90
24374;DHT22;12498;50.880;12.096;2023-11-21T14:13:18;6.60;99.90
24374;DHT22;12498;50.880;12.096;2023-11-21T14:15:45;6.40;99.90
24374;DHT22;12498;50.880;12.096;2023-11-21T14:18:12;7.40;99.90
24374;DHT22;12498;50.880;12.096;2023-11-21T14:20:39;6.30;99.90
24374;DHT22;12498;50.880;12.096;2023-11-21T14:25:32;6.00;99.90
24374;DHT22;12498;50.880;12.096;2023-11-21T14:28:00;6.10;99.90
24374;DHT22;12498;50.880;12.096;2023-11-21T14:30:35;5.90;99.90
24374;DHT22;12498;50.880;12.096;2023-11-21T14:33:04;5.90;99.90
24374;DHT22;12498;50.880;12.096;2023-11-21T14:35:29;6.20;99.90
24374;DHT22;12498;50.880;12.096;2023-11-21T14:37:58;5.60;99.90
24374;DHT22;12498;50.880;12.096;2023-11-21T14:40:24;5.60;99.90
24374;DHT22;12498;50.880;12.096;2023-11-21T14:42:50;5.70;99.90
24374;DHT22;12498;50.880;12.096;2023-11-21T14:45:19;5.50;99.90
24374;DHT22;12498;50.880;12.096;2023-11-21T14:47:48;6.10;99.90
24374;DHT22;12498;50.880;12.096;2023-11-21T14:50:52;5.80;99.90
24374;DHT22;12498;50.880;12.096;2023-11-21T14:53:27;5.50;99.90
24374;DHT22;12498;50.880;12.096;2023-11-21T14:56:09;5.60;99.90
24374;DHT22;12498;50.880;12.096;2023-11-21T14:58:34;5.60;99.90
24374;DHT22;12498;50.880;12.096;2023-11-21T15:03:31;5.40;99.90
24374;DHT22;12498;50.880;12.096;2023-11-21T15:05:59;5.40;99.90
24374;DHT22;12498;50.880;12.096;2023-11-21T15:08:28;5.00;99.90
24374;DHT22;12498;50.880;12.096;2023-11-21T15:10:57;5.10;99.90
24374;DHT22;12498;50.880;12.096;2023-11-21T15:13:23;5.00;99.90
24374;DHT22;12498;50.880;12.096;2023-11-21T15:15:50;5.00;99.90
24374;DHT22;12498;50.880;12.096;2023-11-21T15:18:16;4.90;99.90
24374;DHT22;12498;50.880;12.096;2023-11-21T15:20:41;5.00;99.90
24374;DHT22;12498;50.880;12.096;2023-11-21T15:23:07;5.00;99.90
24374;DHT22;12498;50.880;12.096;2023-11-21T15:25:33;5.70;99.90
24374;DHT22;12498;50.880;12.096;2023-11-21T15:30:26;4.90;99.90
24374;DHT22;12498;50.880;12.096;2023-11-21T15:32:52;4.90;99.90
24374;DHT22;12498;50.880;12.096;2023-11-21T15:35:19;4.90;99.90
24374;DHT22;12498;50.880;12.096;2023-11-21T15:37:45;5.20;99.90
24374;DHT22;12498;50.880;12.096;2023-11-21T15:40:11;5.00;99.90
24374;DHT22;12498;50.880;12.096;2023-11-21T15:42:38;5.00;99.90
24374;DHT22;12498;50.880;12.096;2023-11-21T15:45:04;5.30;99.90
24374;DHT22;12498;50.880;12.096;2023-11-21T15:47:32;5.10;99.90
24374;DHT22;12498;50.880;12.096;2023-11-21T15:49:58;5.00;99.90
24374;DHT22;12498;50.880;12.096;2023-11-21T15:52:23;5.10;99.90
24374;DHT22;12498;50.880;12.096;2023-11-21T15:54:48;5.00;99.90
24374;DHT22;12498;50.880;12.096;2023-11-21T15:57:14;5.00;99.90
24374;DHT22;12498;50.880;12.096;2023-11-21T15:59:42;4.90;99.90